createdAt,value
2023-02-06T00:04:18.447Z,34.38
2023-02-06T00:14:19.994Z,34.43
2023-02-06T00:24:21.313Z,34.45
2023-02-06T00:34:22.545Z,34.10
2023-02-06T00:44:23.775Z,33.85
2023-02-06T00:54:25.012Z,34.12
2023-02-06T01:04:26.286Z,34.01
2023-02-06T01:14:27.522Z,33.49
2023-02-06T01:24:28.800Z,33.78
2023-02-06T01:34:30.077Z,32.98
2023-02-06T01:44:31.375Z,33.29
2023-02-06T01:54:32.645Z,33.12
2023-02-06T02:04:33.908Z,32.53
2023-02-06T02:14:35.156Z,32.72
2023-02-06T02:24:36.394Z,32.90
2023-02-06T02:34:37.647Z,32.25
2023-02-06T02:44:38.930Z,32.13
2023-02-06T02:54:40.239Z,32.52
2023-02-06T03:04:41.545Z,32.49
2023-02-06T03:14:42.910Z,32.14
2023-02-06T03:24:44.174Z,32.66
2023-02-06T03:34:45.527Z,32.43
2023-02-06T03:44:46.765Z,33.00
2023-02-06T03:54:48.041Z,32.70
2023-02-06T04:04:49.353Z,32.92
2023-02-06T04:14:50.629Z,32.55
2023-02-06T04:24:51.940Z,31.89
2023-02-06T04:34:53.190Z,31.93
2023-02-06T04:44:54.446Z,31.52
2023-02-06T04:54:55.691Z,31.35
2023-02-06T05:04:56.942Z,32.05
2023-02-06T05:14:58.239Z,31.96
2023-02-06T05:24:59.521Z,31.31
2023-02-06T05:35:00.797Z,31.07
2023-02-06T05:45:02.058Z,31.81
2023-02-06T05:55:03.304Z,32.10
2023-02-06T06:05:04.625Z,32.61
2023-02-06T06:15:05.997Z,33.19
2023-02-06T06:25:07.319Z,33.27
2023-02-06T06:35:08.574Z,33.37
2023-02-06T06:45:10.036Z,34.21
2023-02-06T06:55:11.359Z,33.55
2023-02-06T07:05:12.620Z,33.48
2023-02-06T07:15:13.874Z,34.34
2023-02-06T07:25:15.180Z,34.50
2023-02-06T07:35:16.654Z,34.17
2023-02-06T07:45:18.168Z,33.82
2023-02-06T07:55:19.548Z,33.92
2023-02-06T08:05:20.914Z,34.15
2023-02-06T08:15:22.452Z,34.67
2023-02-06T08:25:23.716Z,34.48
2023-02-06T08:35:25.212Z,34.36
2023-02-06T08:45:26.735Z,34.96
2023-02-06T08:55:28.254Z,35.63
2023-02-06T09:05:29.679Z,35.77
2023-02-06T09:15:31.102Z,36.27
2023-02-06T09:25:32.616Z,36.90
2023-02-06T09:35:33.879Z,37.52
2023-02-06T09:45:35.471Z,38.30
2023-02-06T09:55:37.231Z,38.93
2023-02-06T10:05:39.059Z,39.75
2023-02-06T10:15:40.749Z,40.59
2023-02-06T10:25:42.141Z,41.22
2023-02-06T10:35:43.503Z,41.13
2023-02-06T10:45:44.848Z,41.64
2023-02-06T10:55:48.795Z,42.02
2023-02-06T11:05:52.698Z,42.25
2023-02-06T11:16:00.587Z,42.83
2023-02-06T11:26:08.795Z,43.66
2023-02-06T11:36:16.675Z,43.52
2023-02-06T11:46:25.619Z,42.96
2023-02-06T11:56:34.136Z,43.42
2023-02-06T12:06:41.650Z,42.52
2023-02-06T12:16:49.639Z,42.25
2023-02-06T12:26:58.906Z,42.47
2023-02-06T12:37:06.594Z,42.76
2023-02-06T12:47:14.556Z,42.72
2023-02-06T12:57:22.626Z,42.70
2023-02-06T13:07:33.934Z,42.53
2023-02-06T13:17:39.713Z,42.39
2023-02-06T13:27:48.145Z,41.66
2023-02-06T13:37:56.817Z,41.18
2023-02-06T13:48:04.709Z,40.70
2023-02-06T13:58:12.794Z,40.49
2023-02-06T14:08:20.773Z,40.36
2023-02-06T14:18:29.630Z,40.22
2023-02-06T14:28:37.615Z,39.89
2023-02-06T14:39:03.964Z,39.49
2023-02-06T14:49:05.256Z,39.81
2023-02-06T14:59:10.410Z,39.70
2023-02-06T15:09:15.981Z,39.32
2023-02-06T15:19:21.066Z,38.99
2023-02-06T15:29:32.350Z,38.46
2023-02-06T15:39:41.744Z,38.36
2023-02-06T15:49:49.551Z,37.72
2023-02-06T15:59:58.832Z,37.78
2023-02-06T16:10:05.688Z,37.32
2023-02-06T16:20:14.514Z,37.24
2023-02-06T16:40:41.771Z,37.25
2023-02-06T16:50:43.020Z,37.02
2023-02-06T17:00:44.421Z,37.06
2023-02-06T17:10:45.855Z,37.11
2023-02-06T17:20:47.255Z,37.47
2023-02-06T17:30:48.731Z,37.66
2023-02-06T17:40:50.170Z,37.74
2023-02-06T17:50:51.545Z,37.55
2023-02-06T18:00:53.100Z,37.36
2023-02-06T18:10:54.670Z,37.19
2023-02-06T18:20:56.173Z,37.34
2023-02-06T18:30:57.637Z,37.13
2023-02-06T18:40:59.172Z,36.99
2023-02-06T18:51:00.451Z,36.69
2023-02-06T19:01:01.996Z,36.56
2023-02-06T19:11:03.544Z,36.33
2023-02-06T19:21:04.991Z,36.41
2023-02-06T19:31:06.353Z,36.06
2023-02-06T19:41:07.995Z,35.96
2023-02-06T19:51:09.510Z,36.08
2023-02-06T20:01:11.064Z,35.47
2023-02-06T20:11:12.626Z,35.14
2023-02-06T20:21:14.094Z,35.87
2023-02-06T20:31:15.907Z,35.71
2023-02-06T20:41:17.534Z,35.63
2023-02-06T20:51:18.793Z,35.83
2023-02-06T21:01:20.221Z,35.69
2023-02-06T21:11:21.519Z,35.22
2023-02-06T21:21:22.895Z,35.02
2023-02-06T21:31:24.254Z,34.40
2023-02-06T21:41:25.650Z,33.96
2023-02-06T21:51:27.197Z,33.72
2023-02-06T22:01:28.790Z,33.80
2023-02-06T22:11:30.347Z,33.50
2023-02-06T22:21:31.682Z,33.58
2023-02-06T22:31:33.038Z,34.00
2023-02-06T22:41:34.317Z,33.70
2023-02-06T22:51:35.721Z,33.30
2023-02-06T23:01:37.158Z,33.34
2023-02-06T23:11:38.462Z,32.70
2023-02-06T23:21:39.770Z,32.54
2023-02-06T23:31:41.061Z,32.44
2023-02-06T23:41:42.349Z,31.74
2023-02-06T23:51:43.611Z,31.66
